Urakawa, Japan

10:35 AM JST on August 05, 2015 (GMT +0900)
Obihiro | | Change Station
CLOSE
Current Station
Airport
Location: Obihiro,
Elevation: 489 ft
Nearby Weather Stations

Elev 489 ft 42.73 °N, 143.22 °E | Updated 5 minutes ago

Partly Cloudy
Partly Cloudy
91 °F
Feels Like 93 °F
N
2
Wind Variable Wind from Variable

Today
High -- | Low -- °F
--% Chance of Precip.
Yesterday
High -- | Low -- °F
Precip. -- in
4:25 AM 6:44 PM
Waning Gibbous, 72% visible
Pressure 29.65 in
Visibility 6.2 miles
Clouds Few 5000 ft
Heat Index 93 °F
Dew Point 64 °F
Humidity 41%
Rainfall 0.00 in
Snow Depth Not available.
UV 8 out of 12
Pollen Not available.
Air Quality Not available.
Flu Activity Not available.
SPECI RJCB 050130Z VRB02KT 9999 FEW050 33/18 Q1004 RMK 1CU050 A2965

More Conditions Fewer Conditions

Pressure 29.65 in
Visibility 6.2 miles
Clouds Few 5000 ft
Heat Index 93 °F
Dew Point 64 °F
Humidity 41%
Rainfall 0.00 in
Snow Depth Not available.
UV 8 out of 12
Pollen Not available.
Air Quality Not available.
Flu Activity Not available.
SPECI RJCB 050130Z VRB02KT 9999 FEW050 33/18 Q1004 RMK 1CU050 A2965

More Conditions Fewer Conditions

10-Day Weather Forecast

×

Almanac

Astronomy

Aug. 05, 2015 Rise Set
Actual Time
Civil Twilight
Nautical Twilight
Astronomical Twilight
Moon
Length of Visible Light
Length of Day
Tomorrow will be .
, % of the Moon is Illuminated

Today's Extremes

Country Highs Country Lows

Community

WunderPhotos

Upload Photos

1,844,064 photos uploaded!

WunderBlogs® & News

Nearby

Air Quality

  Air Quality AQ Index Pollutant
Not available.

Snow Depth

Station Depth Elevation

Earthquake Activity

City Distance Mag. Time & Date
Minimum magnitude displayed is 2.5.

Coastal Water Temperatures

Place Temperature

Stations

Nearby Weather Stations

Station Location Temp. Windchill Dew Point Humidity Wind Precip. Elev Updated Type